Time;durP1;ratioP1;P1;durP2;ratioP2;P2;SDS_P1;SDS_P2;PMS_P1;PMS_P2;Temp;Humidity;BMP_temperature;BMP_pressure;BME280_temperature;BME280_humidity;BME280_pressure;Samples;Min_cycle;Max_cycle;Signal;HPM_P1;HPM_P2
2023/09/18 00:00:12;;;;;;;0.30;0.30;;;;;;;20.33;72.50;100660.38;5054041;28;20036;-79
2023/09/18 00:02:39;;;;;;;0.30;0.30;;;;;;;20.35;72.54;100653.06;5053456;28;20071;-80
2023/09/18 00:05:05;;;;;;;1.48;1.05;;;;;;;20.36;72.74;100649.44;5056626;28;20036;-79
2023/09/18 00:07:31;;;;;;;0.00;0.00;;;;;;;20.39;72.85;100644.78;5059063;28;20619;-79
2023/09/18 00:09:58;;;;;;;1.25;0.55;;;;;;;20.41;72.47;100638.38;5054441;28;20037;-79
2023/09/18 00:12:24;;;;;;;0.10;0.10;;;;;;;20.43;72.60;100632.88;5054308;28;20032;-78
2023/09/18 00:14:56;;;;;;;0.65;0.65;;;;;;;20.48;72.66;100631.59;5060997;28;20081;-78
2023/09/18 00:17:22;;;;;;;0.75;0.75;;;;;;;20.48;72.72;100630.75;5058280;28;20083;-78
2023/09/18 00:19:48;;;;;;;0.00;0.00;;;;;;;20.47;73.29;100629.03;5055996;28;20083;-79
2023/09/18 00:22:14;;;;;;;0.30;0.30;;;;;;;20.53;72.90;100628.63;5055047;28;20128;-79
2023/09/18 00:24:40;;;;;;;0.10;0.10;;;;;;;20.55;73.23;100612.38;5063432;28;20494;-79
2023/09/18 00:27:07;;;;;;;0.20;0.20;;;;;;;20.57;73.20;100608.59;5057270;28;20078;-79
2023/09/18 00:29:33;;;;;;;0.10;0.10;;;;;;;20.60;73.00;100608.44;5062382;28;20028;-79
2023/09/18 00:32:01;;;;;;;0.10;0.10;;;;;;;20.62;73.42;100601.13;5059524;28;20114;-79
2023/09/18 00:34:28;;;;;;;1.45;1.17;;;;;;;20.65;73.14;100592.81;5061750;28;20036;-79
2023/09/18 00:36:55;;;;;;;0.47;0.47;;;;;;;20.62;74.44;100594.84;5057813;28;20033;-79
2023/09/18 00:39:21;;;;;;;0.40;0.40;;;;;;;20.67;73.87;100600.78;5060471;28;20112;-80
2023/09/18 00:41:49;;;;;;;0.85;0.85;;;;;;;20.71;73.40;100583.53;5062523;28;20029;-80
2023/09/18 00:44:15;;;;;;;0.20;0.20;;;;;;;20.74;73.33;100563.59;5058921;28;20024;-79
2023/09/18 00:46:41;;;;;;;0.35;0.35;;;;;;;20.74;74.15;100567.16;5055836;28;20040;-79
2023/09/18 00:49:07;;;;;;;1.30;1.02;;;;;;;20.78;74.01;100562.44;5055814;28;20371;-79
2023/09/18 00:51:33;;;;;;;0.10;0.10;;;;;;;20.80;74.11;100549.72;5057369;28;20066;-78
2023/09/18 00:54:00;;;;;;;0.65;0.65;;;;;;;20.81;74.39;100540.66;5066535;28;20060;-79
2023/09/18 00:56:26;;;;;;;0.45;0.45;;;;;;;20.79;74.78;100531.84;5060386;28;20667;-79
2023/09/18 00:58:54;;;;;;;0.38;0.38;;;;;;;20.82;74.31;100510.97;5054090;28;20516;-80
2023/09/18 01:01:22;;;;;;;2.72;1.55;;;;;;;20.88;73.85;100514.19;5062561;28;20071;-80
2023/09/18 01:03:51;;;;;;;0.80;0.68;;;;;;;20.89;73.95;100516.78;5066733;28;20048;-80
2023/09/18 01:06:19;;;;;;;0.20;0.20;;;;;;;20.89;74.34;100518.63;5061709;28;20047;-79
2023/09/18 01:08:46;;;;;;;0.10;0.10;;;;;;;20.89;73.82;100506.00;5055409;28;20063;-79
2023/09/18 01:11:37;;;;;;;0.25;0.25;;;;;;;20.91;74.38;100493.31;5052896;28;20480;-79
2023/09/18 01:14:28;;;;;;;0.43;0.43;;;;;;;20.91;74.18;100496.00;5062352;28;20086;-79
2023/09/18 01:17:01;;;;;;;0.15;0.15;;;;;;;20.93;74.11;100483.28;5052072;28;20079;-79
2023/09/18 01:22:22;;;;;;;0.10;0.10;;;;;;;20.90;74.12;100501.47;5109878;27;21033;-80
2023/09/18 01:24:48;;;;;;;0.63;0.63;;;;;;;20.90;74.56;100512.25;5086354;28;20063;-80
2023/09/18 01:27:17;;;;;;;0.20;0.20;;;;;;;20.90;74.46;100505.03;5084562;28;20035;-81
2023/09/18 01:29:46;;;;;;;1.35;1.25;;;;;;;20.93;74.15;100498.59;5092690;28;20028;-81
2023/09/18 01:32:12;;;;;;;0.30;0.30;;;;;;;20.95;74.13;100499.34;5086556;28;20032;-81
2023/09/18 01:34:52;;;;;;;0.10;0.10;;;;;;;20.98;73.88;100507.19;5089960;28;20025;-80
2023/09/18 01:37:23;;;;;;;0.82;0.82;;;;;;;20.99;74.10;100500.84;5092789;28;20099;-80
2023/09/18 01:39:51;;;;;;;0.32;0.32;;;;;;;20.98;74.40;100497.28;5085646;28;20028;-80
2023/09/18 01:42:17;;;;;;;0.45;0.45;;;;;;;21.01;73.85;100488.16;5090946;28;20037;-81
2023/09/18 01:44:46;;;;;;;0.85;0.85;;;;;;;21.02;74.03;100489.84;5083177;28;20032;-80
2023/09/18 01:47:19;;;;;;;1.27;1.20;;;;;;;21.07;73.94;100486.84;5089946;28;20021;-80
2023/09/18 01:49:46;;;;;;;;;;;;;;;21.17;73.32;100475.31;5077522;28;20024;-79
2023/09/18 01:52:12;;;;;;;2.40;0.50;;;;;;;21.08;73.85;100485.88;5083007;28;19994;-79
2023/09/18 01:54:41;;;;;;;0.00;0.00;;;;;;;21.08;73.67;100477.81;5085442;28;20032;-80
2023/09/18 01:57:07;;;;;;;0.25;0.25;;;;;;;21.09;73.68;100484.91;5094849;28;20450;-80
2023/09/18 01:59:34;;;;;;;0.10;0.10;;;;;;;21.09;73.61;100490.31;5090865;28;20390;-80
2023/09/18 02:02:03;;;;;;;0.10;0.10;;;;;;;21.08;73.64;100492.13;5085707;28;20031;-79
2023/09/18 02:04:29;;;;;;;0.20;0.20;;;;;;;21.09;73.61;100504.63;5089009;28;20063;-80
2023/09/18 02:06:57;;;;;;;0.10;0.10;;;;;;;21.09;73.66;100507.31;5088982;28;20078;-79
2023/09/18 02:09:23;;;;;;;0.20;0.20;;;;;;;21.10;73.64;100508.19;5084848;28;20040;-79
2023/09/18 02:11:49;;;;;;;0.55;0.55;;;;;;;21.10;73.59;100503.66;5082695;28;20501;-79
2023/09/18 02:14:15;;;;;;;0.00;0.00;;;;;;;21.11;73.56;100509.91;5090064;28;20123;-79
2023/09/18 02:16:44;;;;;;;0.22;0.22;;;;;;;21.10;73.66;100503.66;5090809;28;20024;-79
2023/09/18 02:19:12;;;;;;;0.08;0.08;;;;;;;21.08;73.96;100502.88;5083093;28;20390;-79
2023/09/18 02:21:38;;;;;;;2.50;0.98;;;;;;;21.09;74.03;100511.84;5089853;28;20024;-79
2023/09/18 02:24:05;;;;;;;0.10;0.10;;;;;;;21.11;74.02;100504.50;5090410;28;20047;-80
2023/09/18 02:26:31;;;;;;;0.25;0.25;;;;;;;21.15;73.78;100500.66;5089952;28;20063;-79
2023/09/18 02:29:00;;;;;;;0.10;0.10;;;;;;;21.18;73.97;100489.66;5082501;28;20539;-80
2023/09/18 02:31:27;;;;;;;0.15;0.15;;;;;;;21.19;73.87;100485.97;5081794;28;20069;-80
2023/09/18 02:33:53;;;;;;;0.10;0.10;;;;;;;21.22;73.83;100480.41;5074333;28;20028;-78
2023/09/18 02:36:19;;;;;;;0.10;0.10;;;;;;;21.24;73.74;100478.44;5083787;28;20058;-80
2023/09/18 02:38:45;;;;;;;0.10;0.10;;;;;;;21.28;73.60;100468.31;5075387;28;20028;-80
2023/09/18 02:41:11;;;;;;;0.10;0.10;;;;;;;21.28;73.70;100453.03;5072186;28;20490;-80
2023/09/18 02:43:40;;;;;;;0.30;0.30;;;;;;;21.33;73.71;100440.06;5068167;28;20428;-79
2023/09/18 02:46:07;;;;;;;0.10;0.10;;;;;;;21.31;73.79;100420.44;5075050;28;20024;-79
2023/09/18 02:48:33;;;;;;;0.43;0.43;;;;;;;21.35;73.59;100415.69;5074986;28;20070;-80
2023/09/18 02:51:00;;;;;;;0.50;0.50;;;;;;;21.36;73.67;100400.38;5073435;28;20025;-79
2023/09/18 02:53:27;;;;;;;0.30;0.30;;;;;;;21.36;73.80;100379.72;5069921;28;20040;-79
2023/09/18 02:55:56;;;;;;;0.77;0.77;;;;;;;21.38;73.63;100384.97;5078905;28;20035;-81
2023/09/18 02:58:22;;;;;;;0.10;0.10;;;;;;;21.38;73.51;100393.91;5075470;28;20103;-80
2023/09/18 03:00:50;;;;;;;0.10;0.10;;;;;;;21.38;73.42;100382.28;5078797;28;20101;-79
2023/09/18 03:03:17;;;;;;;0.30;0.30;;;;;;;21.37;73.37;100353.59;5065607;28;20087;-80
2023/09/18 03:05:44;;;;;;;0.15;0.15;;;;;;;21.37;73.28;100354.47;5076645;28;20078;-80
2023/09/18 03:08:11;;;;;;;0.20;0.20;;;;;;;21.37;73.34;100370.66;5073057;28;20054;-80
2023/09/18 03:10:40;;;;;;;0.10;0.10;;;;;;;21.37;73.33;100370.66;5071009;28;20367;-80
2023/09/18 03:13:07;;;;;;;0.85;0.85;;;;;;;21.37;73.22;100342.81;5075888;28;20032;-79
2023/09/18 03:15:33;;;;;;;0.10;0.10;;;;;;;21.36;73.39;100349.19;5088328;28;20052;-79
2023/09/18 03:18:00;;;;;;;0.40;0.40;;;;;;;21.34;73.53;100371.72;5078362;28;20095;-79
2023/09/18 03:20:28;;;;;;;0.10;0.10;;;;;;;21.34;73.40;100387.88;5074365;28;20036;-79
2023/09/18 03:22:57;;;;;;;0.10;0.10;;;;;;;21.30;73.68;100381.00;5072709;28;20043;-78
2023/09/18 03:25:23;;;;;;;0.95;0.88;;;;;;;21.27;74.06;100397.41;5074026;28;20032;-79
2023/09/18 03:27:54;;;;;;;0.32;0.32;;;;;;;21.31;74.13;100390.81;5073008;28;20028;-78
2023/09/18 03:30:23;;;;;;;0.85;0.85;;;;;;;21.29;74.30;100400.81;5071153;28;20059;-79
2023/09/18 03:32:50;;;;;;;2.33;0.50;;;;;;;21.32;74.32;100400.63;5071104;28;20059;-79
2023/09/18 03:35:18;;;;;;;0.10;0.10;;;;;;;21.29;74.66;100390.03;5068938;28;20025;-79
2023/09/18 03:37:50;;;;;;;0.28;0.28;;;;;;;21.33;74.67;100396.97;5072901;28;20028;-77
2023/09/18 03:40:17;;;;;;;0.20;0.20;;;;;;;21.33;75.05;100399.66;5062119;28;20025;-77
2023/09/18 03:42:44;;;;;;;0.88;0.73;;;;;;;21.28;75.78;100400.94;5065161;28;20032;-77
2023/09/18 03:45:11;;;;;;;0.20;0.20;;;;;;;21.30;75.94;100402.56;5057626;28;20086;-76
2023/09/18 03:47:39;;;;;;;0.30;0.30;;;;;;;21.29;76.33;100411.59;5058471;28;20033;-76
2023/09/18 03:50:07;;;;;;;1.88;1.17;;;;;;;21.27;76.64;100405.50;5059867;28;20442;-76
2023/09/18 03:52:33;;;;;;;0.10;0.10;;;;;;;21.30;76.56;100381.00;5064147;28;20024;-76
2023/09/18 03:54:59;;;;;;;0.10;0.10;;;;;;;21.29;77.25;100379.28;5061052;28;20024;-75
2023/09/18 03:57:25;;;;;;;0.15;0.15;;;;;;;21.32;76.97;100386.28;5059123;28;20035;-76
2023/09/18 03:59:52;;;;;;;0.55;0.55;;;;;;;21.35;76.82;100391.44;5059740;28;20687;-75
2023/09/18 04:02:18;;;;;;;0.15;0.15;;;;;;;21.33;77.33;100394.25;5064902;28;20110;-75
2023/09/18 04:04:44;;;;;;;0.10;0.10;;;;;;;21.34;77.50;100390.56;5066373;28;20510;-75
2023/09/18 04:07:11;;;;;;;0.70;0.70;;;;;;;21.42;76.67;100379.25;5064612;28;20029;-76
2023/09/18 04:09:37;;;;;;;0.17;0.17;;;;;;;21.43;77.23;100348.66;5055648;28;20406;-76
2023/09/18 04:12:05;;;;;;;0.28;0.28;;;;;;;21.46;76.43;100332.22;5064840;28;20021;-76
2023/09/18 04:14:32;;;;;;;0.32;0.32;;;;;;;21.51;76.39;100318.41;5064989;28;20486;-76
2023/09/18 04:16:58;;;;;;;0.10;0.10;;;;;;;21.52;76.67;100308.50;5067019;28;20115;-75
2023/09/18 04:19:24;;;;;;;0.43;0.43;;;;;;;21.55;76.58;100298.34;5064265;28;20099;-76
2023/09/18 04:21:50;;;;;;;0.30;0.30;;;;;;;21.53;77.00;100300.28;5066661;28;20036;-76
2023/09/18 04:24:16;;;;;;;0.10;0.10;;;;;;;21.56;76.24;100304.59;5060671;28;20036;-76
2023/09/18 04:26:42;;;;;;;0.20;0.20;;;;;;;21.55;76.37;100292.94;5071246;28;20035;-75
2023/09/18 04:29:09;;;;;;;0.20;0.20;;;;;;;21.56;76.22;100289.31;5064582;28;20033;-76
2023/09/18 04:31:35;;;;;;;0.40;0.40;;;;;;;21.56;76.10;100288.44;5058489;28;20075;-76
2023/09/18 04:34:02;;;;;;;0.20;0.20;;;;;;;21.57;76.02;100280.25;5061228;28;20465;-76
2023/09/18 04:36:29;;;;;;;0.10;0.10;;;;;;;21.58;75.84;100276.59;5063934;28;20484;-75
2023/09/18 04:38:55;;;;;;;0.10;0.10;;;;;;;21.58;75.85;100279.28;5056189;28;20078;-75
2023/09/18 04:41:21;;;;;;;0.10;0.10;;;;;;;21.57;76.15;100282.97;5061421;28;20032;-76
2023/09/18 04:43:47;;;;;;;0.10;0.10;;;;;;;21.57;76.18;100290.16;5063480;28;20111;-76
2023/09/18 04:46:13;;;;;;;0.10;0.10;;;;;;;21.53;76.05;100278.72;5068209;28;20035;-76
2023/09/18 04:48:39;;;;;;;0.00;0.00;;;;;;;21.53;76.45;100294.03;5068240;28;20028;-77
2023/09/18 04:51:05;;;;;;;5.13;0.52;;;;;;;21.52;76.17;100292.31;5069515;28;20033;-76
2023/09/18 04:53:32;;;;;;;0.95;0.63;;;;;;;21.48;76.80;100289.00;5061891;28;20478;-76
2023/09/18 04:55:59;;;;;;;0.25;0.25;;;;;;;21.47;76.95;100292.66;5057668;28;20086;-75
2023/09/18 04:58:26;;;;;;;0.00;0.00;;;;;;;21.46;77.24;100277.47;5058115;28;20032;-75
2023/09/18 05:00:56;;;;;;;0.10;0.10;;;;;;;21.42;77.70;100275.97;5069954;28;20025;-76
2023/09/18 05:03:22;;;;;;;0.08;0.08;;;;;;;21.42;77.40;100282.25;5065010;28;20554;-76
2023/09/18 05:05:49;;;;;;;0.73;0.73;;;;;;;21.35;78.20;100280.97;5060247;28;20059;-76
2023/09/18 05:08:15;;;;;;;0.63;0.63;;;;;;;21.44;77.42;100279.41;5066091;28;20445;-76
2023/09/18 05:10:41;;;;;;;0.28;0.28;;;;;;;21.44;77.46;100268.66;5066667;28;20055;-74
2023/09/18 05:13:07;;;;;;;0.80;0.80;;;;;;;21.40;78.13;100277.94;5067060;28;20039;-73
2023/09/18 05:15:34;;;;;;;0.10;0.10;;;;;;;21.40;78.01;100272.56;5070618;28;20165;-75
2023/09/18 05:18:01;;;;;;;0.40;0.40;;;;;;;21.48;77.45;100259.34;5060532;28;20051;-75
2023/09/18 05:20:29;;;;;;;0.30;0.30;;;;;;;21.50;77.63;100254.72;5064403;28;20064;-74
2023/09/18 05:22:57;;;;;;;0.00;0.00;;;;;;;21.39;78.02;100260.06;5068964;28;20059;-74
2023/09/18 05:25:25;;;;;;;0.90;0.73;;;;;;;21.43;77.77;100251.63;5078947;28;20032;-73
2023/09/18 05:27:56;;;;;;;0.73;0.73;;;;;;;21.44;77.24;100247.94;5064990;28;20021;-75
2023/09/18 05:30:29;;;;;;;0.15;0.15;;;;;;;21.49;77.57;100252.97;5054438;28;20159;-74
2023/09/18 05:32:55;;;;;;;0.00;0.00;;;;;;;21.48;77.43;100270.13;5052197;28;20029;-74
2023/09/18 05:35:23;;;;;;;0.10;0.10;;;;;;;21.44;77.79;100265.94;5051897;28;20115;-73
2023/09/18 05:37:51;;;;;;;0.90;0.85;;;;;;;21.42;78.02;100254.41;5061569;28;20021;-74
2023/09/18 05:40:18;;;;;;;0.10;0.10;;;;;;;21.39;77.90;100263.59;5051864;28;20028;-75
2023/09/18 05:42:45;;;;;;;0.10;0.10;;;;;;;21.29;78.45;100271.50;5052694;28;20123;-74
2023/09/18 05:45:12;;;;;;;0.35;0.35;;;;;;;21.43;77.78;100283.97;5055186;28;20037;-75
2023/09/18 05:47:39;;;;;;;0.03;0.03;;;;;;;21.47;77.61;100279.19;5055835;28;20025;-75
2023/09/18 05:50:07;;;;;;;0.98;0.52;;;;;;;21.45;77.62;100260.44;5059050;28;20037;-74
2023/09/18 05:52:34;;;;;;;0.35;0.35;;;;;;;21.46;77.38;100246.00;5054916;28;20032;-75
2023/09/18 05:55:02;;;;;;;0.20;0.20;;;;;;;21.49;77.19;100256.53;5057938;28;20089;-75
2023/09/18 05:57:28;;;;;;;0.10;0.10;;;;;;;21.51;76.97;100259.13;5063788;28;20032;-74
2023/09/18 05:59:56;;;;;;;0.90;0.40;;;;;;;21.50;77.48;100265.50;5062213;28;20025;-75
2023/09/18 06:02:23;;;;;;;1.45;1.17;;;;;;;21.50;77.35;100274.41;5056753;28;20041;-75
2023/09/18 06:04:49;;;;;;;0.10;0.10;;;;;;;21.54;76.95;100275.06;5064886;28;20027;-75
2023/09/18 06:07:15;;;;;;;0.10;0.10;;;;;;;21.49;77.71;100279.94;5062453;28;20036;-75
2023/09/18 06:09:42;;;;;;;0.57;0.57;;;;;;;21.52;77.30;100287.81;5061212;28;20025;-76
2023/09/18 06:12:09;;;;;;;0.00;0.00;;;;;;;21.52;77.20;100277.03;5063877;28;20401;-75
2023/09/18 06:14:37;;;;;;;0.85;0.57;;;;;;;21.54;77.28;100291.22;5065874;28;20028;-76
2023/09/18 06:17:05;;;;;;;0.00;0.00;;;;;;;21.43;77.93;100283.97;5073078;28;20563;-76
2023/09/18 06:19:32;;;;;;;0.10;0.10;;;;;;;21.52;77.45;100290.50;5057568;28;20029;-75
2023/09/18 06:21:59;;;;;;;0.00;0.00;;;;;;;21.55;77.15;100302.88;5054617;28;20079;-75
2023/09/18 06:24:25;;;;;;;0.10;0.10;;;;;;;21.53;77.47;100302.13;5056165;28;20115;-75
2023/09/18 06:26:51;;;;;;;1.35;0.52;;;;;;;21.55;77.18;100292.09;5067051;28;20020;-76
2023/09/18 06:29:17;;;;;;;0.38;0.38;;;;;;;21.47;77.72;100290.84;5059279;28;20033;-75
2023/09/18 06:31:43;;;;;;;0.35;0.35;;;;;;;21.46;77.61;100307.13;5058200;28;20501;-76
2023/09/18 06:34:09;;;;;;;0.00;0.00;;;;;;;21.54;77.44;100302.00;5057437;28;20497;-75
2023/09/18 06:36:35;;;;;;;0.10;0.10;;;;;;;21.47;77.59;100293.53;5057170;28;20037;-76
2023/09/18 06:39:02;;;;;;;0.10;0.10;;;;;;;21.52;77.40;100297.72;5059256;28;20552;-76
2023/09/18 06:41:28;;;;;;;0.10;0.10;;;;;;;21.51;77.34;100296.88;5052588;28;20066;-76
2023/09/18 06:43:54;;;;;;;0.10;0.10;;;;;;;21.48;77.34;100306.03;5053376;28;20569;-76
2023/09/18 06:46:20;;;;;;;0.10;0.10;;;;;;;21.47;77.43;100298.03;5070905;28;20071;-75
2023/09/18 06:48:47;;;;;;;0.75;0.75;;;;;;;21.48;77.17;100294.38;5055641;28;20036;-76
2023/09/18 06:51:13;;;;;;;0.35;0.35;;;;;;;21.48;77.12;100292.56;5052658;28;20404;-76
2023/09/18 06:53:40;;;;;;;0.63;0.63;;;;;;;21.45;77.28;100298.16;5053013;28;20025;-76
2023/09/18 06:56:06;;;;;;;0.20;0.20;;;;;;;21.50;76.81;100297.84;5065814;28;20123;-75
2023/09/18 06:58:32;;;;;;;0.30;0.30;;;;;;;21.44;77.04;100306.38;5065701;28;20440;-75
2023/09/18 07:00:58;;;;;;;0.20;0.20;;;;;;;21.46;76.60;100299.88;5061478;28;20548;-76
2023/09/18 07:03:25;;;;;;;0.95;0.90;;;;;;;21.51;76.47;100302.25;5061825;28;20037;-76
2023/09/18 07:05:51;;;;;;;0.10;0.10;;;;;;;21.53;76.21;100302.97;5058660;28;20085;-78
2023/09/18 07:08:22;;;;;;;0.20;0.20;;;;;;;21.44;76.50;100300.97;5066252;28;20456;-77
2023/09/18 07:10:50;;;;;;;0.33;0.33;;;;;;;21.38;76.46;100296.03;5070332;28;20035;-76
2023/09/18 07:13:16;;;;;;;0.20;0.20;;;;;;;21.48;76.52;100291.69;5053305;28;20314;-76
2023/09/18 07:15:43;;;;;;;0.22;0.22;;;;;;;21.36;76.77;100288.09;5055040;28;20049;-76
2023/09/18 07:18:14;;;;;;;0.32;0.32;;;;;;;21.37;76.73;100287.13;5062535;28;20029;-76
2023/09/18 07:20:41;;;;;;;0.17;0.17;;;;;;;21.31;76.19;100296.50;5067383;28;20032;-75
2023/09/18 07:23:07;;;;;;;0.10;0.10;;;;;;;21.31;76.18;100307.28;5061550;28;20044;-75
2023/09/18 07:25:33;;;;;;;0.22;0.22;;;;;;;21.32;76.08;100309.00;5059398;28;20056;-76
2023/09/18 07:27:59;;;;;;;0.15;0.15;;;;;;;21.22;76.19;100312.47;5070098;28;20029;-75
2023/09/18 07:30:27;;;;;;;0.10;0.10;;;;;;;21.31;75.85;100301.88;5061005;28;20120;-75
2023/09/18 07:32:57;;;;;;;0.30;0.30;;;;;;;21.25;75.99;100296.97;5085164;28;20111;-75
2023/09/18 07:35:24;;;;;;;0.10;0.10;;;;;;;21.13;76.14;100292.47;5067270;28;20044;-76
2023/09/18 07:37:50;;;;;;;0.10;0.10;;;;;;;21.03;76.49;100307.59;5070377;28;20485;-76
2023/09/18 07:40:17;;;;;;;0.10;0.10;;;;;;;21.03;76.27;100313.81;5065510;28;20489;-75
2023/09/18 07:42:44;;;;;;;0.05;0.05;;;;;;;21.05;76.46;100316.41;5068403;28;20507;-75
2023/09/18 07:45:11;;;;;;;0.15;0.15;;;;;;;21.06;76.00;100326.19;5057866;28;20040;-76
2023/09/18 07:47:37;;;;;;;0.77;0.77;;;;;;;20.92;76.48;100338.84;5059021;28;20035;-75
2023/09/18 07:50:03;;;;;;;0.43;0.43;;;;;;;20.92;76.37;100330.78;5062620;28;20028;-75
2023/09/18 07:52:31;;;;;;;0.52;0.52;;;;;;;21.02;76.21;100339.03;5069728;28;20480;-75
2023/09/18 07:54:58;;;;;;;0.10;0.10;;;;;;;20.96;76.25;100340.34;5069343;28;20032;-76
2023/09/18 07:57:25;;;;;;;0.00;0.00;;;;;;;20.99;75.98;100345.50;5061004;28;20386;-75
2023/09/18 07:59:51;;;;;;;0.10;0.10;;;;;;;20.98;75.95;100342.91;5065382;28;20390;-75
2023/09/18 08:02:18;;;;;;;0.03;0.03;;;;;;;20.88;76.35;100349.94;5062668;28;20539;-75
2023/09/18 08:04:44;;;;;;;0.30;0.30;;;;;;;20.98;76.00;100346.47;5066734;28;20040;-75
2023/09/18 08:07:10;;;;;;;0.10;0.10;;;;;;;20.96;76.41;100351.13;5070654;28;20107;-77
2023/09/18 08:09:36;;;;;;;0.10;0.10;;;;;;;21.03;76.12;100350.69;5064825;28;20028;-77
2023/09/18 08:12:03;;;;;;;0.10;0.10;;;;;;;21.05;76.32;100364.88;5072626;28;20028;-78
2023/09/18 08:14:29;;;;;;;0.10;0.10;;;;;;;21.03;76.20;100356.06;5060928;28;20033;-76
2023/09/18 08:16:58;;;;;;;0.00;0.00;;;;;;;21.10;75.98;100368.13;5070380;28;20375;-76
2023/09/18 08:19:26;;;;;;;0.10;0.10;;;;;;;21.01;76.49;100369.66;5054052;28;20067;-78
2023/09/18 08:21:54;;;;;;;0.00;0.00;;;;;;;21.14;76.37;100375.00;5050215;28;20090;-74
2023/09/18 08:24:21;;;;;;;0.30;0.30;;;;;;;21.15;76.75;100368.66;5067192;28;20493;-79
2023/09/18 08:26:47;;;;;;;0.10;0.10;;;;;;;21.20;76.43;100365.59;5065554;28;20056;-78
2023/09/18 08:29:13;;;;;;;0.13;0.13;;;;;;;21.34;76.24;100368.16;5063006;28;20056;-77
2023/09/18 08:31:39;;;;;;;0.22;0.22;;;;;;;21.40;76.08;100372.25;5059878;28;20033;-83
2023/09/18 08:34:05;;;;;;;0.45;0.45;;;;;;;21.47;75.74;100371.69;5063555;28;20097;-79
2023/09/18 08:36:31;;;;;;;0.98;0.95;;;;;;;21.44;74.78;100376.44;5059280;28;20044;-80
2023/09/18 08:38:57;;;;;;;0.17;0.17;;;;;;;21.60;74.14;100371.66;5062845;28;20025;-81
2023/09/18 08:41:27;;;;;;;1.15;0.55;;;;;;;21.85;74.03;100375.22;5054759;28;20025;-79
2023/09/18 08:44:00;;;;;;;0.43;0.43;;;;;;;21.93;73.61;100377.34;5058688;28;20066;-81
2023/09/18 08:46:26;;;;;;;0.38;0.38;;;;;;;21.97;73.78;100379.72;5060879;28;20032;-80
2023/09/18 08:48:53;;;;;;;2.33;1.30;;;;;;;22.04;72.96;100380.09;5065524;28;20031;-82
2023/09/18 08:51:21;;;;;;;0.55;0.55;;;;;;;22.02;72.32;100386.59;5059711;28;20035;-81
2023/09/18 08:53:47;;;;;;;9.02;0.73;;;;;;;21.95;71.74;100381.66;5055757;28;20040;-79
2023/09/18 08:56:14;;;;;;;0.10;0.10;;;;;;;22.00;71.56;100392.09;5061750;28;20089;-84
2023/09/18 08:58:42;;;;;;;0.10;0.10;;;;;;;21.92;70.99;100387.28;5062496;28;20436;-82
2023/09/18 09:01:10;;;;;;;0.28;0.28;;;;;;;22.10;70.86;100390.41;5063135;28;20032;-81
2023/09/18 09:03:41;;;;;;;0.45;0.45;;;;;;;22.10;70.43;100397.66;5063913;28;20036;-81
2023/09/18 09:06:08;;;;;;;0.20;0.20;;;;;;;22.07;70.19;100405.97;5062575;28;20115;-83
2023/09/18 09:08:35;;;;;;;0.10;0.10;;;;;;;22.10;70.94;100394.97;5067769;28;20108;-84
2023/09/18 09:11:02;;;;;;;0.10;0.10;;;;;;;22.09;69.88;100409.44;5066082;28;20027;-81
2023/09/18 09:13:28;;;;;;;7.57;1.38;;;;;;;22.07;69.16;100403.28;5056673;28;20036;-81
2023/09/18 09:15:56;;;;;;;0.32;0.32;;;;;;;22.24;69.27;100405.59;5057667;28;20402;-81
2023/09/18 09:18:26;;;;;;;0.03;0.03;;;;;;;22.25;69.37;100409.97;5070415;28;20107;-81
2023/09/18 09:20:58;;;;;;;0.55;0.55;;;;;;;22.23;68.98;100411.94;5064451;28;20020;-80
2023/09/18 09:23:25;;;;;;;1.75;0.65;;;;;;;22.09;69.07;100423.78;5062144;28;20490;-84
2023/09/18 09:25:51;;;;;;;0.60;0.60;;;;;;;22.11;69.06;100413.72;5066508;28;20029;-84
2023/09/18 09:28:30;;;;;;;0.32;0.32;;;;;;;22.06;69.25;100420.47;5055189;28;20032;-79
2023/09/18 09:31:02;;;;;;;0.20;0.20;;;;;;;21.97;69.40;100428.25;5058336;28;20555;-83
2023/09/18 09:33:29;;;;;;;;;;;;;;;21.95;68.78;100424.81;5067659;28;20033;-85
2023/09/18 09:35:56;;;;;;;2.63;0.75;;;;;;;21.88;68.43;100437.06;5071813;28;19935;-80
2023/09/18 09:38:31;;;;;;;0.20;0.20;;;;;;;21.98;69.01;100438.06;5074851;28;20024;-84
2023/09/18 09:40:59;;;;;;;0.47;0.47;;;;;;;21.94;69.09;100439.28;5072598;28;20580;-80
2023/09/18 09:43:27;;;;;;;0.08;0.08;;;;;;;22.05;67.91;100434.91;5066560;28;20091;-78
2023/09/18 09:46:01;;;;;;;0.68;0.50;;;;;;;22.22;67.63;100442.59;5061182;28;20103;-78
2023/09/18 09:48:30;;;;;;;0.13;0.13;;;;;;;22.05;66.81;100432.22;5069997;28;20104;-77
2023/09/18 09:51:00;;;;;;;0.20;0.20;;;;;;;22.18;66.54;100427.63;5065136;28;20393;-77
2023/09/18 09:53:47;;;;;;;0.47;0.47;;;;;;;22.42;66.86;100434.88;5065367;28;20036;-77
2023/09/18 09:56:14;;;;;;;0.13;0.13;;;;;;;22.33;66.12;100435.53;5064370;28;20036;-78
2023/09/18 09:58:43;;;;;;;0.10;0.10;;;;;;;22.43;66.43;100441.97;5065248;28;20421;-77
2023/09/18 10:01:18;;;;;;;1.25;1.08;;;;;;;22.26;65.59;100449.47;5062922;28;20041;-78
2023/09/18 10:03:46;;;;;;;0.00;0.00;;;;;;;22.57;66.36;100436.38;5062315;28;20375;-78
2023/09/18 10:06:13;;;;;;;0.45;0.45;;;;;;;22.53;65.38;100434.91;5073722;28;20493;-78
2023/09/18 10:08:40;;;;;;;0.10;0.10;;;;;;;22.62;65.83;100439.56;5068335;28;20486;-79
2023/09/18 10:11:10;;;;;;;3.13;0.65;;;;;;;22.92;65.86;100435.47;5065824;28;20456;-77
2023/09/18 10:13:52;;;;;;;0.10;0.10;;;;;;;23.08;65.40;100439.66;5068039;28;20066;-78
2023/09/18 10:16:20;;;;;;;0.10;0.10;;;;;;;22.93;64.20;100453.41;5069740;28;20033;-78
2023/09/18 10:19:00;;;;;;;0.13;0.13;;;;;;;22.80;63.89;100441.81;5061454;28;20485;-78
2023/09/18 10:21:35;;;;;;;0.10;0.10;;;;;;;22.65;63.60;100433.06;5065749;28;20062;-78
2023/09/18 10:24:24;;;;;;;0.35;0.35;;;;;;;22.82;64.36;100429.06;5056732;28;20036;-78
2023/09/18 10:26:56;;;;;;;1.17;1.17;;;;;;;22.78;63.80;100422.19;5062223;28;20033;-78
2023/09/18 10:29:24;;;;;;;0.73;0.73;;;;;;;22.86;63.86;100435.94;5070932;28;20021;-78
2023/09/18 10:31:52;;;;;;;0.00;0.00;;;;;;;22.97;63.40;100428.81;5068726;28;20420;-78
2023/09/18 10:34:19;;;;;;;0.00;0.00;;;;;;;23.17;63.59;100438.97;5073087;28;20310;-77
2023/09/18 10:36:51;;;;;;;0.10;0.10;;;;;;;23.27;63.22;100428.28;5077968;28;20021;-78
2023/09/18 10:39:23;;;;;;;0.10;0.10;;;;;;;23.30;62.83;100428.00;5069794;28;20386;-79
2023/09/18 10:41:52;;;;;;;0.75;0.63;;;;;;;23.41;62.33;100429.84;5070358;28;20039;-79
2023/09/18 10:44:19;;;;;;;0.28;0.25;;;;;;;23.57;61.49;100426.78;5076552;28;20044;-79
2023/09/18 10:46:47;;;;;;;0.10;0.10;;;;;;;23.67;62.20;100426.88;5065227;28;20482;-78
2023/09/18 10:49:14;;;;;;;0.00;0.00;;;;;;;23.75;61.01;100417.16;5063632;28;20064;-79
2023/09/18 10:51:42;;;;;;;0.55;0.35;;;;;;;23.77;60.84;100427.00;5071728;28;20505;-79
2023/09/18 10:54:09;;;;;;;0.05;0.05;;;;;;;23.83;60.43;100432.75;5072795;28;20035;-79
2023/09/18 10:56:36;;;;;;;0.22;0.22;;;;;;;23.84;59.90;100442.59;5071636;28;20021;-78
2023/09/18 10:59:07;;;;;;;0.10;0.10;;;;;;;23.87;60.45;100433.34;5062313;28;20166;-79
2023/09/18 11:01:36;;;;;;;0.00;0.00;;;;;;;23.77;59.66;100425.13;5063465;28;20100;-79
2023/09/18 11:04:04;;;;;;;0.03;0.03;;;;;;;23.92;60.56;100411.38;5066668;28;20275;-78
2023/09/18 11:06:50;;;;;;;0.10;0.10;;;;;;;23.93;60.13;100416.66;5063600;28;20032;-78
2023/09/18 11:09:21;;;;;;;0.10;0.10;;;;;;;24.08;59.70;100422.63;5065949;28;20037;-79
2023/09/18 11:11:55;;;;;;;0.75;0.50;;;;;;;24.08;59.57;100416.34;5062003;28;20047;-79
2023/09/18 11:14:21;;;;;;;0.30;0.30;;;;;;;24.26;59.56;100419.34;5062979;28;20044;-79
2023/09/18 11:16:49;;;;;;;0.05;0.05;;;;;;;24.14;58.63;100419.41;5071714;28;20098;-80
2023/09/18 11:19:19;;;;;;;0.20;0.20;;;;;;;23.96;59.31;100412.81;5053309;28;20063;-78
2023/09/18 11:21:46;;;;;;;1.45;0.95;;;;;;;23.95;60.04;100416.50;5053324;28;20116;-77
2023/09/18 11:24:22;;;;;;;0.63;0.63;;;;;;;24.05;59.25;100420.16;5061811;28;20551;-77
2023/09/18 11:26:49;;;;;;;0.60;0.60;;;;;;;24.12;58.87;100424.06;5051008;28;20025;-77
2023/09/18 11:29:22;;;;;;;0.25;0.25;;;;;;;24.09;58.20;100412.63;5057910;28;20138;-78
2023/09/18 11:31:51;;;;;;;0.10;0.10;;;;;;;24.14;57.73;100413.09;5062072;28;20028;-78